createdAt,value
2018-12-02T00:01:18.689Z,6.67
2018-12-02T00:03:49.688Z,6.66
2018-12-02T00:06:19.636Z,6.63
2018-12-02T00:08:48.703Z,6.70
2018-12-02T00:11:17.658Z,6.78
2018-12-02T00:13:46.588Z,6.81
2018-12-02T00:16:15.544Z,6.81
2018-12-02T00:18:46.494Z,6.87
2018-12-02T00:21:18.776Z,6.86
2018-12-02T00:23:48.675Z,6.89
2018-12-02T00:26:17.679Z,6.97
2018-12-02T00:28:46.640Z,6.98
2018-12-02T00:31:15.604Z,6.96
2018-12-02T00:33:44.920Z,6.97
2018-12-02T00:36:17.241Z,6.93
2018-12-02T00:38:46.177Z,6.97
2018-12-02T00:41:15.147Z,6.97
2018-12-02T00:43:44.149Z,6.98
2018-12-02T00:46:13.107Z,6.93
2018-12-02T00:48:42.032Z,6.94
2018-12-02T00:51:11.615Z,6.98
2018-12-02T00:53:43.730Z,6.94
2018-12-02T00:56:11.304Z,6.96
2018-12-02T00:58:40.669Z,6.95
2018-12-02T01:01:09.648Z,6.92
2018-12-02T01:03:38.589Z,6.92
2018-12-02T01:06:08.189Z,6.96
2018-12-02T01:08:40.368Z,6.94
2018-12-02T01:11:09.817Z,6.96
2018-12-02T01:13:39.095Z,6.91
2018-12-02T01:16:08.572Z,6.98
2018-12-02T01:18:37.624Z,7.00
2018-12-02T01:21:08.090Z,6.97
2018-12-02T01:23:40.984Z,6.89
2018-12-02T01:26:10.443Z,6.92
2018-12-02T01:28:39.713Z,6.87
2018-12-02T01:31:08.900Z,6.88
2018-12-02T01:33:38.241Z,6.89
2018-12-02T01:36:09.292Z,6.88
2018-12-02T01:38:42.049Z,6.87
2018-12-02T01:41:11.615Z,6.86
2018-12-02T01:43:40.957Z,6.90
2018-12-02T01:46:10.239Z,6.84
2018-12-02T01:48:39.418Z,6.82
2018-12-02T01:51:09.652Z,6.75
2018-12-02T01:53:40.781Z,6.68
2018-12-02T01:56:10.116Z,6.64
2018-12-02T01:58:39.508Z,6.69
2018-12-02T02:01:09.194Z,6.66
2018-12-02T02:03:38.464Z,6.71
2018-12-02T02:06:09.896Z,6.72
2018-12-02T02:08:40.145Z,6.75
2018-12-02T02:11:09.432Z,6.78
2018-12-02T02:13:38.757Z,6.75
2018-12-02T02:16:08.084Z,6.80
2018-12-02T02:18:37.375Z,6.76
2018-12-02T02:21:07.199Z,6.75
2018-12-02T02:23:38.343Z,6.74
2018-12-02T02:26:08.818Z,6.73
2018-12-02T02:28:38.023Z,6.73
2018-12-02T02:31:07.371Z,6.77
2018-12-02T02:33:36.764Z,6.77
2018-12-02T02:36:06.527Z,6.78
2018-12-02T02:38:38.932Z,6.80
2018-12-02T02:41:08.260Z,6.75
2018-12-02T02:43:37.551Z,6.78
2018-12-02T02:46:06.816Z,6.78
2018-12-02T02:48:36.097Z,6.76
2018-12-02T02:51:05.406Z,6.74
2018-12-02T02:53:36.602Z,6.70
2018-12-02T02:56:07.391Z,6.70
2018-12-02T02:58:36.763Z,6.62
2018-12-02T03:01:06.158Z,6.59
2018-12-02T03:03:35.421Z,6.58
2018-12-02T03:06:06.075Z,6.55
2018-12-02T03:08:37.644Z,6.49
2018-12-02T03:11:07.228Z,6.48
2018-12-02T03:13:36.511Z,6.47
2018-12-02T03:16:05.717Z,6.46
2018-12-02T03:18:36.275Z,6.47
2018-12-02T03:21:08.824Z,6.51
2018-12-02T03:23:40.068Z,6.49
2018-12-02T03:26:09.224Z,6.50
2018-12-02T03:28:38.568Z,6.49
2018-12-02T03:31:07.729Z,6.46
2018-12-02T03:33:37.203Z,6.43
2018-12-02T03:36:09.747Z,6.55
2018-12-02T03:38:38.902Z,6.51
2018-12-02T03:41:08.332Z,6.52
2018-12-02T03:43:37.596Z,6.44
2018-12-02T03:46:06.900Z,6.41
2018-12-02T03:48:37.934Z,6.39
2018-12-02T03:51:09.173Z,6.43
2018-12-02T03:53:38.575Z,6.43
2018-12-02T03:56:07.866Z,6.45
2018-12-02T03:58:37.223Z,6.44
2018-12-02T04:01:06.509Z,6.50
2018-12-02T04:03:35.787Z,6.54
2018-12-02T04:06:06.204Z,6.52
2018-12-02T04:08:37.433Z,6.59
2018-12-02T04:11:07.005Z,6.55
2018-12-02T04:13:36.305Z,6.56
2018-12-02T04:16:05.599Z,6.62
2018-12-02T04:18:34.773Z,6.58
2018-12-02T04:21:05.768Z,6.56
2018-12-02T04:23:35.803Z,6.61
2018-12-02T04:26:05.199Z,6.63
2018-12-02T04:28:34.579Z,6.69
2018-12-02T04:31:03.943Z,6.68
2018-12-02T04:33:33.322Z,6.71
2018-12-02T04:36:02.984Z,6.72
2018-12-02T04:38:34.890Z,6.71
2018-12-02T04:41:04.092Z,6.76
2018-12-02T04:43:33.328Z,6.79
2018-12-02T04:46:02.604Z,6.78
2018-12-02T04:48:31.794Z,6.82
2018-12-02T04:51:03.189Z,6.79
2018-12-02T04:53:34.025Z,6.79
2018-12-02T04:56:03.194Z,6.81
2018-12-02T04:58:32.518Z,6.79
2018-12-02T05:01:01.810Z,6.82
2018-12-02T05:03:30.967Z,6.82
2018-12-02T05:06:01.168Z,6.80
2018-12-02T05:08:32.596Z,6.85
2018-12-02T05:11:03.639Z,6.87
2018-12-02T05:13:32.922Z,6.89
2018-12-02T05:16:02.306Z,6.88
2018-12-02T05:18:31.619Z,6.95
2018-12-02T05:21:01.933Z,6.97
2018-12-02T05:23:33.935Z,6.93
2018-12-02T05:26:03.183Z,7.00
2018-12-02T05:28:32.489Z,7.01
2018-12-02T05:31:01.752Z,6.99
2018-12-02T05:33:31.109Z,6.99
2018-12-02T05:36:03.035Z,7.01
2018-12-02T05:38:32.842Z,7.02
2018-12-02T05:41:02.064Z,6.96
2018-12-02T05:43:31.345Z,6.96
2018-12-02T05:46:00.623Z,6.93
2018-12-02T05:48:30.180Z,6.96
2018-12-02T05:51:03.354Z,6.99
2018-12-02T05:53:33.918Z,7.03
2018-12-02T05:56:03.047Z,7.01
2018-12-02T05:58:32.250Z,7.01
2018-12-02T06:01:02.042Z,6.95
2018-12-02T06:03:34.629Z,6.94
2018-12-02T06:06:03.952Z,7.01
2018-12-02T06:08:33.237Z,7.04
2018-12-02T06:11:02.547Z,7.08
2018-12-02T06:13:31.870Z,7.08
2018-12-02T06:16:02.321Z,7.03
2018-12-02T06:18:35.289Z,6.96
2018-12-02T06:21:04.902Z,6.91
2018-12-02T06:23:34.192Z,6.88
2018-12-02T06:26:03.502Z,6.92
2018-12-02T06:28:32.874Z,7.03
2018-12-02T06:31:02.105Z,7.05
2018-12-02T06:33:33.565Z,7.09
2018-12-02T06:36:03.127Z,7.12
2018-12-02T06:38:32.310Z,7.12
2018-12-02T06:41:01.622Z,7.16
2018-12-02T06:43:30.920Z,7.11
2018-12-02T06:46:01.861Z,7.11
2018-12-02T06:48:32.792Z,7.09
2018-12-02T06:51:01.695Z,7.17
2018-12-02T06:53:30.571Z,7.10
2018-12-02T06:56:09.997Z,7.06
2018-12-02T06:58:52.388Z,7.02
2018-12-02T07:01:32.385Z,6.98
2018-12-02T07:04:21.106Z,6.98
2018-12-02T07:06:50.010Z,6.93
2018-12-02T07:09:19.009Z,6.91
2018-12-02T07:11:47.857Z,6.92
2018-12-02T07:14:19.153Z,6.91
2018-12-02T07:16:48.211Z,6.87
2018-12-02T07:19:24.388Z,6.84
2018-12-02T07:22:02.759Z,6.81
2018-12-02T07:24:35.694Z,6.82
2018-12-02T07:27:06.881Z,6.84
2018-12-02T07:29:36.159Z,6.79
2018-12-02T07:32:07.829Z,6.82
2018-12-02T07:34:39.707Z,6.85
2018-12-02T07:37:11.909Z,6.85
2018-12-02T07:39:53.492Z,6.87
2018-12-02T07:42:24.880Z,6.86
2018-12-02T07:44:54.198Z,6.88
2018-12-02T07:47:23.495Z,6.90
2018-12-02T07:49:52.398Z,6.85
2018-12-02T07:52:21.280Z,6.86
2018-12-02T07:54:52.897Z,6.87
2018-12-02T07:57:21.890Z,6.90
2018-12-02T07:59:51.094Z,6.93
2018-12-02T08:02:20.492Z,6.96
2018-12-02T08:04:55.143Z,7.03
2018-12-02T08:07:24.938Z,7.08
2018-12-02T08:09:54.225Z,7.10
2018-12-02T08:12:23.566Z,7.09
2018-12-02T08:14:53.993Z,7.13
2018-12-02T08:17:24.286Z,7.10
2018-12-02T08:19:53.210Z,7.13
2018-12-02T08:22:22.113Z,7.22
2018-12-02T08:24:50.999Z,7.25
2018-12-02T08:27:20.504Z,7.32
2018-12-02T08:29:51.834Z,7.37
2018-12-02T08:32:20.762Z,7.42
2018-12-02T08:34:49.646Z,7.44
2018-12-02T08:37:18.563Z,7.49
2018-12-02T08:39:47.573Z,7.48
2018-12-02T08:42:16.491Z,7.52
2018-12-02T08:44:45.398Z,7.54
2018-12-02T08:47:14.457Z,7.59
2018-12-02T08:49:45.121Z,7.63
2018-12-02T08:58:05.780Z,7.78
2018-12-02T09:00:34.704Z,7.78
2018-12-02T09:03:05.441Z,7.85
2018-12-02T09:05:34.734Z,7.86
2018-12-02T09:08:06.427Z,7.91
2018-12-02T09:10:35.318Z,8.00
2018-12-02T09:13:07.167Z,8.06
2018-12-02T09:15:36.075Z,8.13
2018-12-02T09:18:05.967Z,8.10
2018-12-02T09:20:38.338Z,8.10
2018-12-02T09:23:09.080Z,8.14
2018-12-02T09:25:38.372Z,8.10
2018-12-02T09:28:08.509Z,8.09
2018-12-02T09:30:38.055Z,8.06
2018-12-02T09:33:07.044Z,8.02
2018-12-02T09:35:36.864Z,7.96
2018-12-02T09:38:08.328Z,7.97
2018-12-02T09:40:37.217Z,7.98
2018-12-02T09:43:07.133Z,7.92
2018-12-02T09:45:36.146Z,7.93
2018-12-02T09:48:05.712Z,8.00
2018-12-02T09:50:37.009Z,7.93
2018-12-02T09:53:06.998Z,7.97
2018-12-02T09:55:37.834Z,7.94
2018-12-02T09:58:08.407Z,8.00
2018-12-02T10:00:37.325Z,8.01
2018-12-02T10:03:06.844Z,7.97
2018-12-02T10:05:39.139Z,8.00
2018-12-02T10:08:08.093Z,7.99
2018-12-02T10:10:36.968Z,8.03
2018-12-02T10:13:08.445Z,8.11
2018-12-02T10:15:38.427Z,8.17
2018-12-02T10:18:10.419Z,8.19
2018-12-02T10:20:39.618Z,8.16
2018-12-02T10:23:08.950Z,8.20
2018-12-02T10:25:37.900Z,8.15
2018-12-02T10:28:07.515Z,8.19
2018-12-02T10:30:38.826Z,8.16
2018-12-02T10:33:07.861Z,8.18
2018-12-02T10:35:38.168Z,8.26
2018-12-02T10:38:11.648Z,8.27
2018-12-02T10:40:40.956Z,8.27
2018-12-02T10:43:10.222Z,8.27
2018-12-02T10:45:39.838Z,8.33
2018-12-02T10:48:12.064Z,8.37
2018-12-02T10:50:41.019Z,8.36
2018-12-02T10:53:14.171Z,8.39
2018-12-02T10:55:48.901Z,8.41
2018-12-02T10:58:23.088Z,8.47
2018-12-02T11:01:00.246Z,8.48
2018-12-02T11:03:29.204Z,8.48
2018-12-02T11:05:58.112Z,8.53
2018-12-02T11:08:27.029Z,8.68
2018-12-02T11:10:56.075Z,8.69
2018-12-02T11:13:25.977Z,8.73
2018-12-02T11:15:55.029Z,8.80
2018-12-02T11:18:23.935Z,8.83
2018-12-02T11:20:52.970Z,8.98
2018-12-02T11:23:21.907Z,9.04
2018-12-02T11:25:51.978Z,9.10
2018-12-02T11:28:21.998Z,9.17
2018-12-02T11:30:50.961Z,9.23
2018-12-02T11:33:19.906Z,9.34
2018-12-02T11:35:49.332Z,9.40
2018-12-02T11:38:18.263Z,9.55
2018-12-02T11:40:47.262Z,9.68
2018-12-02T11:43:16.166Z,9.68
2018-12-02T11:45:45.066Z,9.71
2018-12-02T11:48:14.001Z,9.67
2018-12-02T11:50:42.891Z,9.69
2018-12-02T11:53:11.817Z,9.69
2018-12-02T11:55:40.842Z,9.72
2018-12-02T11:58:10.413Z,9.75
2018-12-02T12:00:41.874Z,9.78
2018-12-02T12:03:10.777Z,9.84
2018-12-02T12:05:39.853Z,9.80
2018-12-02T12:08:10.278Z,9.82
2018-12-02T12:10:39.215Z,9.81
2018-12-02T12:13:08.192Z,9.84
2018-12-02T12:15:37.755Z,9.87
2018-12-02T12:18:09.236Z,9.84
2018-12-02T12:20:43.403Z,9.87
2018-12-02T12:23:21.383Z,9.87
2018-12-02T12:25:50.698Z,9.94
2018-12-02T12:28:20.471Z,9.96
2018-12-02T12:30:50.482Z,10.01
2018-12-02T12:33:19.416Z,10.03
2018-12-02T12:35:51.687Z,10.06
2018-12-02T12:38:20.615Z,10.09
2018-12-02T12:40:51.344Z,10.04
2018-12-02T12:43:27.200Z,10.16
2018-12-02T12:45:56.222Z,10.16
2018-12-02T12:48:25.949Z,10.21
2018-12-02T12:50:55.023Z,10.30
2018-12-02T12:53:23.965Z,10.31
2018-12-02T12:55:53.754Z,10.22
2018-12-02T12:58:22.679Z,10.21
2018-12-02T13:00:51.745Z,10.28
2018-12-02T13:03:21.615Z,10.28
2018-12-02T13:05:50.703Z,10.34
2018-12-02T13:08:19.755Z,10.39
2018-12-02T13:10:48.966Z,10.37
2018-12-02T13:13:17.902Z,10.37
2018-12-02T13:15:46.860Z,10.46
2018-12-02T13:18:16.183Z,10.45
2018-12-02T13:20:52.525Z,10.49
2018-12-02T13:23:21.556Z,10.59
2018-12-02T13:25:50.491Z,10.61
2018-12-02T13:28:21.027Z,10.66
2018-12-02T13:30:50.075Z,10.65
2018-12-02T13:33:22.992Z,10.62
2018-12-02T13:35:52.706Z,10.67
2018-12-02T13:38:21.773Z,10.69
2018-12-02T13:40:51.098Z,10.64
2018-12-02T13:43:23.444Z,10.62
2018-12-02T13:45:54.041Z,10.68
2018-12-02T13:48:23.353Z,10.68
2018-12-02T13:50:56.372Z,10.68
2018-12-02T13:53:25.400Z,10.65
2018-12-02T13:55:54.296Z,10.66
2018-12-02T13:58:24.795Z,10.68
2018-12-02T14:00:58.353Z,10.73
2018-12-02T14:03:38.254Z,10.74
2018-12-02T14:06:07.652Z,10.76
2018-12-02T14:08:39.170Z,10.80
2018-12-02T14:11:07.284Z,10.79
2018-12-02T14:13:37.512Z,10.77
2018-12-02T14:16:16.705Z,10.72
2018-12-02T14:18:46.822Z,10.74
2018-12-02T14:21:17.867Z,10.82
2018-12-02T14:23:47.911Z,10.90
2018-12-02T14:26:18.855Z,10.90
2018-12-02T14:28:56.896Z,10.89
2018-12-02T14:31:26.766Z,10.87
2018-12-02T14:33:59.218Z,10.82
2018-12-02T14:36:30.299Z,10.82
2018-12-02T14:39:05.520Z,10.82
2018-12-02T14:41:38.453Z,10.78
2018-12-02T14:44:08.461Z,10.79
2018-12-02T14:46:38.378Z,10.79
2018-12-02T14:49:07.487Z,10.78
2018-12-02T14:51:36.438Z,10.80
2018-12-02T14:54:05.743Z,10.90
2018-12-02T14:56:34.792Z,10.87
2018-12-02T14:59:03.789Z,10.85
2018-12-02T15:01:32.933Z,10.87
2018-12-02T15:04:04.043Z,10.85
2018-12-02T15:06:32.968Z,10.82
2018-12-02T15:09:01.901Z,10.87
2018-12-02T15:11:30.943Z,10.78
2018-12-02T15:13:59.866Z,10.76
2018-12-02T15:16:28.815Z,10.79
2018-12-02T15:18:57.791Z,10.83
2018-12-02T15:21:26.719Z,10.88
2018-12-02T15:23:55.756Z,10.92
2018-12-02T15:26:26.939Z,10.84
2018-12-02T15:28:55.872Z,10.84
2018-12-02T15:31:26.579Z,10.80
2018-12-02T15:33:55.469Z,10.78
2018-12-02T15:36:24.410Z,10.74
2018-12-02T15:38:53.554Z,10.77
2018-12-02T15:41:22.513Z,10.77
2018-12-02T15:43:51.691Z,10.74
2018-12-02T15:46:22.042Z,10.70
2018-12-02T15:48:51.375Z,10.68
2018-12-02T15:51:20.291Z,10.67
2018-12-02T15:53:49.195Z,10.70
2018-12-02T15:56:18.107Z,10.74
2018-12-02T15:58:48.229Z,10.67
2018-12-02T16:01:18.794Z,10.66
2018-12-02T16:03:50.371Z,10.61
2018-12-02T16:06:19.966Z,10.71
2018-12-02T16:08:48.947Z,10.64
2018-12-02T16:11:18.025Z,10.62
2018-12-02T16:13:47.507Z,10.57
2018-12-02T16:16:16.579Z,10.58
2018-12-02T16:18:45.830Z,10.60
2018-12-02T16:21:14.788Z,10.60
2018-12-02T16:23:44.163Z,10.58
2018-12-02T16:26:13.801Z,10.60
2018-12-02T16:28:42.732Z,10.51
2018-12-02T16:31:11.704Z,10.50
2018-12-02T16:33:40.937Z,10.50
2018-12-02T16:36:09.875Z,10.43
2018-12-02T16:38:38.861Z,10.42
2018-12-02T16:41:08.439Z,10.40
2018-12-02T16:43:37.374Z,10.39
2018-12-02T16:46:06.621Z,10.35
2018-12-02T16:48:35.591Z,10.44
2018-12-02T16:51:04.655Z,10.45
2018-12-02T16:53:34.316Z,10.47
2018-12-02T16:56:19.262Z,10.47
2018-12-02T16:59:51.147Z,10.53
2018-12-02T17:02:22.644Z,10.51
2018-12-02T17:04:53.068Z,10.58
2018-12-02T17:07:21.995Z,10.61
2018-12-02T17:09:50.903Z,10.65
2018-12-02T17:12:19.939Z,10.71
2018-12-02T17:14:51.194Z,10.80
2018-12-02T17:17:20.546Z,10.77
2018-12-02T17:19:49.503Z,10.73
2018-12-02T17:22:19.070Z,10.75
2018-12-02T17:24:48.021Z,10.78
2018-12-02T17:27:16.996Z,10.83
2018-12-02T17:29:45.903Z,10.86
2018-12-02T17:32:15.605Z,10.89
2018-12-02T17:34:47.112Z,10.97
2018-12-02T17:37:16.122Z,10.97
2018-12-02T17:39:51.560Z,10.97
2018-12-02T17:42:20.481Z,10.95
2018-12-02T17:44:49.456Z,10.96
2018-12-02T17:47:18.351Z,10.96
2018-12-02T17:49:49.348Z,11.01
2018-12-02T17:52:19.158Z,10.97
2018-12-02T17:54:48.121Z,10.91
2018-12-02T17:57:17.123Z,10.97
2018-12-02T17:59:46.381Z,10.92
2018-12-02T18:02:15.773Z,10.89
2018-12-02T18:04:45.094Z,10.89
2018-12-02T18:07:14.398Z,10.89
2018-12-02T18:09:43.371Z,10.85
2018-12-02T18:12:12.309Z,10.81
2018-12-02T18:14:43.253Z,10.81
2018-12-02T18:17:13.762Z,10.79
2018-12-02T18:19:44.030Z,10.79
2018-12-02T18:22:12.944Z,10.80
2018-12-02T18:24:41.945Z,10.82
2018-12-02T18:27:10.932Z,10.84
2018-12-02T18:29:39.867Z,10.82
2018-12-02T18:32:09.922Z,10.88
2018-12-02T18:34:40.504Z,10.93
2018-12-02T18:37:11.002Z,10.91
2018-12-02T18:39:39.985Z,10.87
2018-12-02T18:48:15.959Z,11.00
2018-12-02T18:50:45.959Z,11.05
2018-12-02T18:53:16.227Z,11.04
2018-12-02T18:55:45.589Z,11.05
2018-12-02T18:58:14.777Z,11.08
2018-12-02T19:00:48.882Z,11.06
2018-12-02T19:03:20.656Z,11.00
2018-12-02T19:05:50.758Z,10.95
2018-12-02T19:08:21.121Z,10.86
2018-12-02T19:10:53.595Z,10.80
2018-12-02T19:13:22.992Z,10.73
2018-12-02T19:15:52.286Z,10.67
2018-12-02T19:18:21.635Z,10.64
2018-12-02T19:20:53.815Z,10.67
2018-12-02T19:23:26.177Z,10.63
2018-12-02T19:25:55.592Z,10.69
2018-12-02T19:28:24.927Z,10.69
2018-12-02T19:30:54.323Z,10.69
2018-12-02T19:33:25.827Z,10.64
2018-12-02T19:35:59.488Z,10.59
2018-12-02T19:38:28.804Z,10.52
2018-12-02T19:40:58.234Z,10.50
2018-12-02T19:43:27.460Z,10.46
2018-12-02T19:45:56.895Z,10.42
2018-12-02T19:48:27.575Z,10.41
2018-12-02T19:50:58.836Z,10.36
2018-12-02T19:53:29.275Z,10.32
2018-12-02T19:55:58.593Z,10.32
2018-12-02T19:58:27.851Z,10.31
2018-12-02T20:00:58.377Z,10.33
2018-12-02T20:03:26.459Z,10.27
2018-12-02T20:05:55.762Z,10.29
2018-12-02T20:08:25.547Z,10.27
2018-12-02T20:10:55.629Z,10.29
2018-12-02T20:13:25.315Z,10.25
2018-12-02T20:16:00.055Z,10.26
2018-12-02T20:18:30.239Z,10.26
2018-12-02T20:21:00.973Z,10.26
2018-12-02T20:23:35.774Z,10.26
2018-12-02T20:26:05.302Z,10.24
2018-12-02T20:28:41.085Z,10.28
2018-12-02T20:31:15.875Z,10.28
2018-12-02T20:33:45.601Z,10.25
2018-12-02T20:36:14.951Z,10.25
2018-12-02T20:38:44.354Z,10.27
2018-12-02T20:41:13.707Z,10.27
2018-12-02T20:43:43.585Z,10.27
2018-12-02T20:46:13.058Z,10.28
2018-12-02T20:48:42.285Z,10.25
2018-12-02T20:51:11.975Z,10.29
2018-12-02T20:53:41.368Z,10.30
2018-12-02T20:56:10.558Z,10.32
2018-12-02T20:58:39.579Z,10.31
2018-12-02T21:01:09.235Z,10.26
2018-12-02T21:03:41.057Z,10.25
2018-12-02T21:06:14.702Z,10.25
2018-12-02T21:08:44.598Z,10.25
2018-12-02T21:11:13.638Z,10.23
2018-12-02T21:13:42.621Z,10.20
2018-12-02T21:16:11.987Z,10.22
2018-12-02T21:18:40.908Z,10.19
2018-12-02T21:21:09.867Z,10.17
2018-12-02T21:23:40.982Z,10.16
2018-12-02T21:26:10.818Z,10.22
2018-12-02T21:28:41.060Z,10.24
2018-12-02T21:31:10.146Z,10.28
2018-12-02T21:33:39.337Z,10.31
2018-12-02T21:36:08.551Z,10.29
2018-12-02T21:38:39.433Z,10.25
2018-12-02T21:41:08.420Z,10.25
2018-12-02T21:43:37.351Z,10.23
2018-12-02T21:46:06.485Z,10.24
2018-12-02T21:48:35.405Z,10.27
2018-12-02T21:51:04.399Z,10.23
2018-12-02T21:53:34.559Z,10.28
2018-12-02T21:56:03.471Z,10.26
2018-12-02T21:58:34.976Z,10.23
2018-12-02T22:01:09.100Z,10.21
2018-12-02T22:03:39.171Z,10.17
2018-12-02T22:06:08.157Z,10.21
2018-12-02T22:08:37.115Z,10.25
2018-12-02T22:11:07.267Z,10.22
2018-12-02T22:13:43.207Z,10.21
2018-12-02T22:16:06.876Z,10.20
2018-12-02T22:18:35.803Z,10.21
2018-12-02T22:21:04.798Z,10.19
2018-12-02T22:23:33.729Z,10.20
2018-12-02T22:26:02.678Z,10.19
2018-12-02T22:28:31.585Z,10.22
2018-12-02T22:31:00.500Z,10.21
2018-12-02T22:33:30.373Z,10.22
2018-12-02T22:36:01.118Z,10.20
2018-12-02T22:38:30.048Z,10.19
2018-12-02T22:40:59.121Z,10.18
2018-12-02T22:43:28.074Z,10.17
2018-12-02T22:45:57.024Z,10.19
2018-12-02T22:48:26.281Z,10.22
2018-12-02T22:50:57.951Z,10.20
2018-12-02T22:53:26.866Z,10.21
2018-12-02T22:55:55.769Z,10.21
2018-12-02T22:58:24.728Z,10.23
2018-12-02T23:00:59.971Z,10.19
2018-12-02T23:03:28.914Z,10.21
2018-12-02T23:05:58.774Z,10.22
2018-12-02T23:08:27.843Z,10.18
2018-12-02T23:10:56.849Z,10.22
2018-12-02T23:13:26.901Z,10.19
2018-12-02T23:15:57.336Z,10.22
2018-12-02T23:18:26.381Z,10.25
2018-12-02T23:20:55.405Z,10.25
2018-12-02T23:23:24.420Z,10.29
2018-12-02T23:26:28.890Z,10.33
2018-12-02T23:28:56.582Z,10.33
2018-12-02T23:37:14.401Z,10.28
2018-12-02T23:39:42.123Z,10.30
2018-12-02T23:42:09.954Z,10.30
2018-12-02T23:44:37.721Z,10.39
2018-12-02T23:47:24.984Z,10.37
2018-12-02T23:49:52.737Z,10.35
2018-12-02T23:52:20.496Z,10.41
2018-12-02T23:55:29.713Z,10.46
2018-12-02T23:58:18.500Z,10.43
